Strona główna
METAR-TAF:

METAR-TAF

Lotnisko :

Ocean City Municipal Airport

Ocean City, Maryland, Stany Zjednoczone

Szerokość geograficzna: 38-18-38N, Długość geograficzna: 075-07-26W, wysokość: 4 m

Aktualna obserwacja pogody

Raport powstał 1 godzina i 2 minut temu, godzina 21:53 UTC
Wiatr 5 kt od południowo-południowy wschód
Temperatura 24°C
Wilgotność 61%
Ciśnienie 1013 hPa
Widzialność: 16.1 km
bezchmurnie

METAR: KOXB 302153Z AUTO 16005KT 10SM CLR 24/16 A2992 RMK AO2 SLP130 T02390156 $

czas: 18:55 (22:55 UTC)


TAF: brakujący

Obserwacja i prognoza pogody dla ponad 4000 lotnisk (raport METAR i TAF).

Dostępne stacje oznaczono żółtymi i czerwonymi punktami na mapie.

Najedź kursorem aby zobaczyć nazwę stacji.

Kliknij aby zobaczyć obserwacje i prognozy pogody.

Aby zmienić mapę: kliknij na zielony przycisk z czarnym krzyżykiem, aby powiększyć; na zielony przycisk z myślnikiem, aby pomniejszyć; na zielone strzałki, aby przejść do map sąsiednich.


METAR-TAF: